Time;durP1;ratioP1;P1;durP2;ratioP2;P2;SDS_P1;SDS_P2;PMS_P1;PMS_P2;Temp;Humidity;BMP_temperature;BMP_pressure;BME280_temperature;BME280_humidity;BME280_pressure;Samples;Min_cycle;Max_cycle;Signal;HPM_P1;HPM_P2
2021/01/29 00:02:12;;;;;;;1.98;1.30;;;8.90;72.70;;;;;;5011176;28;20022;-64
2021/01/29 00:04:43;;;;;;;2.53;1.67;;;8.90;72.20;;;;;;4994172;28;20053;-65
2021/01/29 00:07:09;;;;;;;2.30;1.60;;;8.80;72.10;;;;;;5011558;28;20026;-66
2021/01/29 00:09:35;;;;;;;2.35;1.73;;;8.80;72.40;;;;;;5010984;28;20040;-63
2021/01/29 00:12:01;;;;;;;2.72;1.88;;;8.80;72.30;;;;;;5009006;28;20057;-64
2021/01/29 00:14:27;;;;;;;2.53;1.80;;;8.80;72.10;;;;;;5010861;28;20040;-64
2021/01/29 00:16:53;;;;;;;2.67;1.92;;;8.90;72.10;;;;;;5010554;28;20022;-64
2021/01/29 00:19:19;;;;;;;3.30;1.75;;;8.90;72.00;;;;;;5011052;28;20017;-64
2021/01/29 00:21:44;;;;;;;2.20;1.60;;;8.80;72.20;;;;;;5010931;28;20041;-63
2021/01/29 00:24:10;;;;;;;2.92;1.90;;;8.80;72.00;;;;;;5012435;28;20104;-64
2021/01/29 00:26:36;;;;;;;3.40;1.83;;;8.80;72.20;;;;;;5011585;28;20073;-64
2021/01/29 00:29:02;;;;;;;3.15;1.85;;;8.80;72.00;;;;;;5011650;28;20026;-63
2021/01/29 00:31:28;;;;;;;3.28;2.00;;;8.80;71.80;;;;;;4993401;28;20080;-63
2021/01/29 00:33:53;;;;;;;2.25;1.67;;;8.80;71.50;;;;;;5011680;28;20021;-63
2021/01/29 00:36:19;;;;;;;2.38;1.52;;;8.70;71.40;;;;;;5012227;28;20033;-65
2021/01/29 00:38:45;;;;;;;3.00;1.80;;;8.70;71.50;;;;;;5011541;28;20103;-64
2021/01/29 00:41:10;;;;;;;3.08;1.75;;;8.70;71.70;;;;;;5012062;28;20315;-66
2021/01/29 00:43:36;;;;;;;3.88;2.00;;;8.70;71.90;;;;;;4994709;28;20121;-64
2021/01/29 00:46:02;;;;;;;3.35;2.00;;;8.80;71.90;;;;;;5011352;28;20430;-63
2021/01/29 00:48:28;;;;;;;3.05;1.95;;;8.80;71.80;;;;;;5011742;28;20064;-63
2021/01/29 00:50:53;;;;;;;3.08;2.10;;;8.80;71.50;;;;;;5009527;28;20037;-65
2021/01/29 00:53:19;;;;;;;2.58;1.75;;;8.70;71.70;;;;;;5011690;28;20465;-65
2021/01/29 00:55:44;;;;;;;3.08;2.13;;;8.80;71.60;;;;;;4990123;28;20027;-64
2021/01/29 00:58:10;;;;;;;2.97;2.00;;;8.70;71.60;;;;;;4992559;28;20030;-65
2021/01/29 01:00:35;;;;;;;5.03;3.13;;;8.70;71.50;;;;;;4992486;28;20410;-62
2021/01/29 01:03:01;;;;;;;3.17;2.13;;;8.80;71.50;;;;;;5011665;28;20034;-65
2021/01/29 01:05:28;;;;;;;3.00;2.08;;;8.70;71.80;;;;;;5011288;28;20017;-65
2021/01/29 01:07:55;;;;;;;2.92;2.10;;;8.70;72.00;;;;;;5011234;28;20026;-64
2021/01/29 01:10:22;;;;;;;3.25;2.00;;;8.70;71.90;;;;;;5007153;28;20044;-63
2021/01/29 01:12:47;;;;;;;4.18;2.30;;;8.70;71.90;;;;;;4988993;28;20030;-64
2021/01/29 01:15:17;;;;;;;3.03;2.40;;;8.70;72.00;;;;;;5004113;28;20026;-65
2021/01/29 01:17:44;;;;;;;2.78;2.10;;;8.70;71.90;;;;;;5003514;28;20017;-64
2021/01/29 01:20:13;;;;;;;3.33;2.22;;;8.70;71.90;;;;;;5001021;28;20116;-64
2021/01/29 01:22:39;;;;;;;2.95;2.03;;;8.80;71.80;;;;;;5000879;28;20049;-64
2021/01/29 01:25:05;;;;;;;3.25;2.08;;;8.70;72.00;;;;;;5003265;28;20038;-64
2021/01/29 01:27:31;;;;;;;2.72;2.08;;;8.70;72.10;;;;;;5001333;28;20045;-64
2021/01/29 01:29:56;;;;;;;3.78;2.05;;;8.70;72.10;;;;;;5000391;28;20038;-64
2021/01/29 01:32:22;;;;;;;3.42;1.92;;;8.60;72.70;;;;;;5003566;28;20410;-65
2021/01/29 01:34:48;;;;;;;2.90;2.05;;;8.60;72.80;;;;;;5005677;28;20034;-64
2021/01/29 01:37:14;;;;;;;2.95;1.90;;;8.60;72.60;;;;;;4991999;28;20034;-64
2021/01/29 01:39:39;;;;;;;3.67;2.05;;;8.70;72.50;;;;;;4993571;28;20080;-64
2021/01/29 01:42:05;;;;;;;2.70;2.00;;;8.60;72.70;;;;;;5011947;28;20113;-64
2021/01/29 01:44:35;;;;;;;2.33;1.83;;;8.50;73.00;;;;;;4997445;28;20322;-64
2021/01/29 01:47:19;;;;;;;3.42;1.90;;;8.50;73.40;;;;;;5014005;28;20025;-64
2021/01/29 01:49:46;;;;;;;3.17;2.20;;;8.60;73.50;;;;;;5013992;28;20470;-64
2021/01/29 01:52:26;;;;;;;2.60;1.80;;;8.60;73.30;;;;;;5015119;28;20058;-65
2021/01/29 01:54:59;;;;;;;2.67;1.58;;;8.60;73.10;;;;;;5012533;28;20497;-63
2021/01/29 01:57:26;;;;;;;2.53;1.98;;;8.60;72.90;;;;;;5021317;23;20045;-59
2021/01/29 01:59:58;;;;;;;2.28;1.77;;;8.60;72.80;;;;;;5029264;28;20045;-60
2021/01/29 02:02:29;;;;;;;2.92;1.70;;;8.60;72.60;;;;;;5020901;28;20060;-58
2021/01/29 02:04:57;;;;;;;2.63;2.00;;;8.70;72.50;;;;;;5028703;28;20101;-60
2021/01/29 02:07:52;;;;;;;3.58;1.92;;;8.70;72.20;;;;;;5034929;28;20084;-60
2021/01/29 02:10:18;;;;;;;3.05;1.95;;;8.80;72.20;;;;;;5034554;28;20036;-59
2021/01/29 02:12:44;;;;;;;2.50;1.90;;;8.80;72.20;;;;;;5034206;28;20025;-51
2021/01/29 02:15:16;;;;;;;3.25;2.10;;;8.70;72.10;;;;;;5017372;28;20433;-60
2021/01/29 02:18:03;;;;;;;2.88;1.85;;;8.80;72.40;;;;;;5034888;28;20022;-60
2021/01/29 02:20:50;;;;;;;3.20;2.20;;;8.60;72.40;;;;;;5015158;28;20037;-60
2021/01/29 02:26:50;;;;;;;4.07;2.53;;;8.60;72.50;;;;;;5014661;28;20041;-59
2021/01/29 02:29:51;;;;;;;3.28;2.45;;;8.70;72.40;;;;;;5029991;28;20029;-61
2021/01/29 02:32:47;;;;;;;3.40;2.25;;;8.70;72.40;;;;;;5008380;28;20033;-59
2021/01/29 02:35:35;;;;;;;3.72;1.90;;;8.70;72.20;;;;;;5001663;28;20030;-58
2021/01/29 02:38:36;;;;;;;2.95;2.13;;;8.60;72.40;;;;;;5020521;28;20508;-60
2021/01/29 02:41:31;;;;;;;9.63;6.05;;;8.60;72.60;;;;;;5033045;28;20468;-61
2021/01/29 02:44:26;;;;;;;3.17;2.22;;;8.60;72.60;;;;;;5032805;28;20524;-60
2021/01/29 02:46:56;;;;;;;2.72;2.10;;;8.60;72.90;;;;;;5033519;28;20400;-60
2021/01/29 02:49:35;;;;;;;2.30;1.98;;;8.60;72.90;;;;;;5034080;28;20034;-59
2021/01/29 02:52:21;;;;;;;4.13;2.40;;;8.70;72.90;;;;;;5032997;28;20021;-58
2021/01/29 02:55:05;;;;;;;3.33;2.28;;;8.60;72.60;;;;;;5032470;28;20195;-56
2021/01/29 02:57:42;;;;;;;4.55;2.53;;;8.60;72.70;;;;;;4996264;28;20054;-59
2021/01/29 03:00:29;;;;;;;2.95;1.98;;;8.60;72.80;;;;;;5028195;28;20025;-60
2021/01/29 03:03:10;;;;;;;3.38;2.00;;;8.70;72.60;;;;;;5033022;28;20035;-59
2021/01/29 03:05:43;;;;;;;2.92;2.17;;;8.60;72.60;;;;;;5016367;28;20025;-60
2021/01/29 03:08:22;;;;;;;2.28;1.52;;;8.60;72.60;;;;;;5010557;28;20156;-59
2021/01/29 03:11:01;;;;;;;3.92;2.55;;;8.60;72.30;;;;;;5033178;28;20035;-52
2021/01/29 03:13:37;;;;;;;4.30;2.30;;;8.60;72.60;;;;;;5033534;28;20052;-58
2021/01/29 03:16:11;;;;;;;2.50;1.58;;;8.60;72.50;;;;;;5017144;28;20021;-60
2021/01/29 03:18:47;;;;;;;5.10;2.08;;;8.60;72.20;;;;;;5033990;28;20512;-59
2021/01/29 03:21:17;;;;;;;4.05;2.70;;;8.70;72.10;;;;;;5033170;28;20026;-59
2021/01/29 03:23:50;;;;;;;3.25;2.15;;;8.70;72.00;;;;;;5033738;28;20021;-61
2021/01/29 03:26:24;;;;;;;2.30;1.88;;;8.70;71.90;;;;;;5016067;28;20056;-58
2021/01/29 03:28:56;;;;;;;2.92;1.90;;;8.70;71.50;;;;;;5032802;28;20095;-59
2021/01/29 03:31:41;;;;;;;2.47;1.80;;;8.60;71.50;;;;;;5015635;28;20028;-59
2021/01/29 03:34:17;;;;;;;3.78;1.85;;;8.70;71.70;;;;;;5032739;28;20032;-58
2021/01/29 03:36:55;;;;;;;3.22;2.00;;;8.70;71.40;;;;;;5033377;28;20105;-59
2021/01/29 03:39:26;;;;;;;4.03;1.95;;;8.70;71.40;;;;;;5027242;28;20114;-60
2021/01/29 03:42:17;;;;;;;5.15;4.00;;;8.80;71.60;;;;;;5018967;28;20079;-60
2021/01/29 03:45:01;;;;;;;3.42;2.42;;;8.80;71.60;;;;;;5032783;28;20084;-58
2021/01/29 03:47:46;;;;;;;3.70;2.17;;;8.80;71.10;;;;;;5033210;28;20022;-58
2021/01/29 03:50:34;;;;;;;2.92;2.08;;;8.70;71.00;;;;;;5032515;28;20488;-60
2021/01/29 03:53:08;;;;;;;3.47;1.90;;;8.70;71.30;;;;;;5032753;28;20100;-60
2021/01/29 03:55:39;;;;;;;;;;;8.70;71.10;;;;;;5033567;28;20036;-60
2021/01/29 03:58:14;;;;;;;2.33;1.65;;;8.80;71.00;;;;;;5016011;28;20362;-60
2021/01/29 04:00:55;;;;;;;2.90;1.95;;;8.80;70.90;;;;;;5015149;28;20462;-60
2021/01/29 04:03:43;;;;;;;2.60;1.60;;;8.70;71.10;;;;;;5028098;28;20377;-60
2021/01/29 04:06:25;;;;;;;3.13;1.90;;;8.70;71.00;;;;;;5032190;28;20116;-58
2021/01/29 04:09:14;;;;;;;2.17;1.50;;;8.70;71.00;;;;;;5032588;28;20040;-51
2021/01/29 04:11:48;;;;;;;2.42;1.70;;;8.70;70.80;;;;;;5015000;28;20207;-60
2021/01/29 04:14:36;;;;;;;;;;;8.70;71.00;;;;;;5032511;28;20036;-60
2021/01/29 04:17:11;;;;;;;2.60;2.00;;;8.60;70.90;;;;;;5031201;28;19905;-60
2021/01/29 04:19:41;;;;;;;2.15;1.50;;;8.60;71.20;;;;;;5015091;28;20072;-59
2021/01/29 04:22:16;;;;;;;2.28;1.65;;;8.50;71.50;;;;;;5032528;28;20105;-59
2021/01/29 04:24:49;;;;;;;3.03;2.00;;;8.50;71.40;;;;;;5032523;28;20093;-58
2021/01/29 04:27:18;;;;;;;3.05;2.20;;;8.50;71.50;;;;;;5032149;28;20018;-58
2021/01/29 04:30:03;;;;;;;3.42;2.30;;;8.50;71.60;;;;;;5032356;28;20045;-59
2021/01/29 04:32:36;;;;;;;2.60;1.75;;;8.50;71.80;;;;;;5032303;28;20022;-59
2021/01/29 04:35:05;;;;;;;2.40;1.58;;;8.50;71.70;;;;;;5014133;28;20018;-58
2021/01/29 04:37:37;;;;;;;2.25;1.55;;;8.50;71.60;;;;;;5027768;28;20100;-59
2021/01/29 04:40:31;;;;;;;2.28;1.40;;;8.50;71.60;;;;;;4994598;28;20022;-59
2021/01/29 04:43:06;;;;;;;2.22;1.40;;;8.40;72.00;;;;;;5016123;28;20045;-60
2021/01/29 04:45:44;;;;;;;2.22;1.60;;;8.30;72.20;;;;;;5032234;28;20025;-58
2021/01/29 04:48:39;;;;;;;2.17;1.67;;;8.30;72.30;;;;;;5031839;28;20030;-60
2021/01/29 04:51:15;;;;;;;2.60;1.85;;;8.30;72.80;;;;;;5018796;28;20037;-59
2021/01/29 04:54:02;;;;;;;2.47;1.83;;;8.30;73.00;;;;;;5032272;28;20041;-60
2021/01/29 04:56:49;;;;;;;2.70;1.50;;;8.40;72.90;;;;;;5032120;28;20025;-59
2021/01/29 04:59:29;;;;;;;2.83;1.70;;;8.30;72.90;;;;;;5031381;28;20049;-60
2021/01/29 05:02:23;;;;;;;2.25;1.88;;;8.30;73.00;;;;;;5031543;28;20030;-58
2021/01/29 05:05:08;;;;;;;;;;;8.30;73.30;;;;;;5028091;28;20029;-60
2021/01/29 05:08:07;;;;;;;3.05;1.80;;;8.20;73.80;;;;;;5031029;28;20308;-58
2021/01/29 05:10:51;;;;;;;3.05;1.50;;;8.10;74.00;;;;;;5014211;28;20095;-59
2021/01/29 05:14:03;;;;;;;3.03;2.00;;;8.10;74.50;;;;;;5026243;28;20022;-59
2021/01/29 05:16:56;;;;;;;2.47;1.58;;;8.00;74.60;;;;;;5031663;28;20117;-59
2021/01/29 05:19:43;;;;;;;3.45;2.15;;;8.10;74.80;;;;;;5036148;28;20029;-57
2021/01/29 05:22:33;;;;;;;3.22;2.25;;;8.10;74.80;;;;;;5035232;28;20045;-59
2021/01/29 05:25:17;;;;;;;2.92;1.75;;;8.10;74.80;;;;;;5035046;28;20103;-59
2021/01/29 05:28:14;;;;;;;2.25;1.70;;;8.00;75.20;;;;;;5018087;28;20055;-59
2021/01/29 05:30:53;;;;;;;4.45;1.77;;;8.10;75.30;;;;;;5035887;28;20029;-58
2021/01/29 05:33:28;;;;;;;2.60;1.70;;;8.20;75.10;;;;;;5034704;28;20028;-58
2021/01/29 05:35:56;;;;;;;2.17;1.52;;;8.20;74.80;;;;;;5035921;28;20472;-59
2021/01/29 05:38:53;;;;;;;2.28;1.80;;;8.20;74.60;;;;;;5035742;28;20028;-57
2021/01/29 05:41:45;;;;;;;2.75;2.17;;;8.20;74.90;;;;;;5023614;28;20051;-60
2021/01/29 05:44:23;;;;;;;2.85;2.03;;;8.10;75.30;;;;;;5036279;28;20153;-58
2021/01/29 05:47:22;;;;;;;2.95;2.22;;;8.10;75.40;;;;;;5049639;28;20066;-57
2021/01/29 05:50:26;;;;;;;3.50;2.35;;;8.20;75.50;;;;;;5034015;28;20041;-59
2021/01/29 05:53:12;;;;;;;4.03;2.92;;;8.20;75.10;;;;;;5029848;28;20083;-59
2021/01/29 05:55:42;;;;;;;5.78;3.20;;;8.30;74.20;;;;;;5017494;28;20032;-60
2021/01/29 05:58:45;;;;;;;3.70;3.20;;;8.20;74.40;;;;;;5024657;28;20117;-59
2021/01/29 06:01:41;;;;;;;4.15;3.05;;;8.20;74.60;;;;;;5028220;28;20029;-60
2021/01/29 06:04:34;;;;;;;7.57;3.88;;;8.30;74.40;;;;;;5033202;28;20464;-58
2021/01/29 06:07:27;;;;;;;6.65;4.22;;;8.30;74.60;;;;;;5034591;28;20025;-59
2021/01/29 06:10:04;;;;;;;5.40;4.13;;;8.40;74.30;;;;;;5035185;28;20041;-61
2021/01/29 06:12:50;;;;;;;5.93;4.50;;;8.40;73.80;;;;;;5034636;28;20025;-60
2021/01/29 06:15:53;;;;;;;6.68;4.88;;;8.50;73.70;;;;;;5026303;28;20075;-60
2021/01/29 06:18:51;;;;;;;8.43;3.85;;;8.60;73.30;;;;;;5025238;28;20117;-62
2021/01/29 06:21:31;;;;;;;5.07;3.58;;;8.60;72.90;;;;;;5033309;28;20049;-62
2021/01/29 06:24:18;;;;;;;3.95;3.28;;;8.60;72.70;;;;;;5036305;28;21476;-61
2021/01/29 06:26:55;;;;;;;8.90;4.38;;;8.70;72.80;;;;;;5033686;28;20105;-62
2021/01/29 06:29:21;;;;;;;5.80;4.32;;;8.60;73.20;;;;;;5030529;28;20042;-64
2021/01/29 06:32:02;;;;;;;7.40;4.50;;;8.50;73.90;;;;;;5033107;28;20032;-60
2021/01/29 06:35:01;;;;;;;8.43;5.85;;;8.40;74.20;;;;;;5030348;28;20093;-61
2021/01/29 06:38:05;;;;;;;6.07;4.57;;;8.40;74.70;;;;;;5030682;28;20030;-61
2021/01/29 06:40:40;;;;;;;8.75;5.53;;;8.40;74.80;;;;;;5039081;28;20064;-61
2021/01/29 06:43:41;;;;;;;11.98;7.20;;;8.30;75.00;;;;;;5052236;28;20108;-60
2021/01/29 06:46:37;;;;;;;7.57;5.18;;;8.20;75.80;;;;;;5014731;28;20400;-60
2021/01/29 06:49:27;;;;;;;10.00;5.60;;;8.20;76.10;;;;;;5033431;28;20029;-59
2021/01/29 06:52:11;;;;;;;7.68;4.70;;;8.10;76.40;;;;;;5016549;28;20120;-61
2021/01/29 06:54:46;;;;;;;6.45;4.25;;;8.00;76.70;;;;;;5034118;28;20022;-61
2021/01/29 06:57:58;;;;;;;8.48;4.82;;;8.00;76.90;;;;;;5033793;28;20076;-61
2021/01/29 07:00:58;;;;;;;7.88;4.90;;;8.00;77.70;;;;;;5033478;28;20048;-60
2021/01/29 07:03:24;;;;;;;7.35;4.75;;;7.90;77.30;;;;;;4990982;28;20466;-62
2021/01/29 07:06:16;;;;;;;8.70;4.53;;;7.80;77.50;;;;;;5034152;28;20070;-61
2021/01/29 07:08:49;;;;;;;9.90;5.10;;;7.70;78.20;;;;;;5031565;28;20145;-60
2021/01/29 07:11:24;;;;;;;9.82;5.15;;;7.60;78.60;;;;;;5020347;28;20428;-60
2021/01/29 07:13:53;;;;;;;10.30;5.88;;;7.60;78.90;;;;;;5014682;28;20477;-61
2021/01/29 07:16:57;;;;;;;9.40;5.88;;;7.60;78.60;;;;;;4996027;28;20152;-61
2021/01/29 07:19:48;;;;;;;8.45;6.63;;;7.50;78.90;;;;;;5014772;28;20029;-60
2021/01/29 07:22:34;;;;;;;9.68;6.65;;;7.50;79.20;;;;;;5030500;28;20046;-61
2021/01/29 07:25:23;;;;;;;9.20;7.53;;;7.40;79.70;;;;;;5033558;28;20029;-61
2021/01/29 07:28:07;;;;;;;8.32;6.30;;;7.40;79.70;;;;;;5032447;28;20025;-62
2021/01/29 07:30:41;;;;;;;;;;;7.50;79.70;;;;;;5033975;28;20049;-62
2021/01/29 07:33:19;;;;;;;;;;;7.60;79.40;;;;;;5014328;28;19913;-61
2021/01/29 07:36:09;;;;;;;11.35;7.47;;;7.50;79.30;;;;;;5022120;28;19909;-61
2021/01/29 07:39:16;;;;;;;10.65;8.23;;;7.50;79.30;;;;;;5032221;28;20419;-61
2021/01/29 07:42:12;;;;;;;9.85;8.73;;;7.50;79.00;;;;;;5013745;28;20542;-59
2021/01/29 07:44:52;;;;;;;10.60;8.55;;;7.50;79.20;;;;;;5015534;28;20534;-63
2021/01/29 07:47:36;;;;;;;11.85;9.10;;;7.50;79.30;;;;;;5011901;28;20037;-61
2021/01/29 07:50:18;;;;;;;12.45;9.80;;;7.50;78.40;;;;;;5012599;28;20132;-59
2021/01/29 07:53:06;;;;;;;12.50;8.70;;;7.50;78.60;;;;;;5011289;28;20386;-62
2021/01/29 07:56:13;;;;;;;10.65;8.25;;;7.50;78.20;;;;;;5012791;28;20484;-63
2021/01/29 07:58:52;;;;;;;13.90;8.55;;;7.60;78.00;;;;;;5021528;28;20073;-62
2021/01/29 08:01:36;;;;;;;13.13;10.80;;;7.60;77.70;;;;;;5031200;28;20472;-61
2021/01/29 08:04:14;;;;;;;10.75;8.70;;;7.70;77.40;;;;;;5031765;28;20097;-52
2021/01/29 08:06:55;;;;;;;13.38;10.55;;;7.70;77.10;;;;;;5027362;28;20021;-61
2021/01/29 08:09:23;;;;;;;13.00;8.40;;;7.80;76.90;;;;;;5033746;28;20043;-62
2021/01/29 08:11:55;;;;;;;12.32;9.25;;;7.80;76.70;;;;;;5017902;28;20394;-62
2021/01/29 08:14:33;;;;;;;10.45;8.43;;;7.70;77.10;;;;;;5014694;28;20045;-60
2021/01/29 08:17:17;;;;;;;11.52;9.15;;;7.80;76.80;;;;;;5020899;28;20066;-62
2021/01/29 08:19:56;;;;;;;12.05;9.57;;;7.80;76.90;;;;;;5027833;28;20387;-60
2021/01/29 08:22:50;;;;;;;10.60;8.50;;;7.80;76.90;;;;;;5030717;28;20239;-61
2021/01/29 08:25:26;;;;;;;11.02;8.93;;;7.90;76.30;;;;;;5029366;28;20057;-61
2021/01/29 08:28:24;;;;;;;11.82;10.15;;;7.80;77.00;;;;;;5013199;28;20025;-63
2021/01/29 08:31:05;;;;;;;19.90;12.98;;;7.90;77.30;;;;;;5011452;28;20026;-60
2021/01/29 08:33:52;;;;;;;12.18;9.77;;;8.10;77.30;;;;;;5021959;28;20053;-62
2021/01/29 08:36:35;;;;;;;13.68;10.75;;;8.20;77.20;;;;;;5029095;28;20026;-63
2021/01/29 08:39:26;;;;;;;14.73;10.10;;;8.10;77.50;;;;;;5030587;28;20026;-62
2021/01/29 08:42:07;;;;;;;12.32;9.70;;;8.10;78.00;;;;;;5012861;28;20033;-61
2021/01/29 08:44:51;;;;;;;16.02;11.68;;;8.00;78.10;;;;;;5022647;28;20042;-64
2021/01/29 08:47:28;;;;;;;15.88;11.20;;;8.10;78.70;;;;;;5032184;28;20018;-65
2021/01/29 08:50:03;;;;;;;14.60;11.15;;;8.20;78.50;;;;;;5018378;28;20137;-63
2021/01/29 08:52:38;;;;;;;13.50;10.07;;;8.30;78.20;;;;;;5038960;28;20044;-62
2021/01/29 08:55:32;;;;;;;13.18;9.98;;;8.30;78.00;;;;;;5027121;28;20823;-62
2021/01/29 08:58:29;;;;;;;14.30;11.10;;;8.30;77.80;;;;;;5021010;28;20045;-65
2021/01/29 09:01:07;;;;;;;13.85;9.98;;;8.30;78.20;;;;;;5015799;28;20030;-69
2021/01/29 09:03:41;;;;;;;12.13;9.20;;;8.40;77.90;;;;;;5013355;28;20474;-61
2021/01/29 09:06:27;;;;;;;;;;;8.40;78.00;;;;;;5026017;28;20025;-65
2021/01/29 09:09:01;;;;;;;8.82;7.22;;;8.40;78.00;;;;;;5018436;28;20161;-64
2021/01/29 09:11:41;;;;;;;10.32;7.57;;;8.50;77.50;;;;;;5012546;28;20024;-67
2021/01/29 09:14:15;;;;;;;14.60;10.15;;;8.60;77.70;;;;;;5022796;28;20030;-64
2021/01/29 09:16:43;;;;;;;11.82;9.20;;;8.60;77.50;;;;;;5035404;28;20049;-62
2021/01/29 09:19:13;;;;;;;11.30;9.25;;;8.70;77.30;;;;;;5032070;28;20052;-72
2021/01/29 09:21:56;;;;;;;9.43;7.25;;;8.80;77.20;;;;;;5022381;28;20025;-65
2021/01/29 09:24:47;;;;;;;11.82;7.18;;;8.70;77.10;;;;;;5016561;28;20033;-70
2021/01/29 09:27:32;;;;;;;11.68;6.97;;;8.70;77.30;;;;;;5027822;28;20038;-64
2021/01/29 09:30:05;;;;;;;9.57;6.57;;;8.60;78.00;;;;;;5025541;28;20112;-64
2021/01/29 09:33:00;;;;;;;8.10;6.38;;;8.60;78.30;;;;;;5022878;28;20401;-72
2021/01/29 09:35:38;;;;;;;11.68;6.85;;;8.50;78.60;;;;;;5031512;28;20231;-66
2021/01/29 09:38:09;;;;;;;10.70;6.57;;;8.50;78.50;;;;;;5006860;28;20049;-64
2021/01/29 09:40:45;;;;;;;9.13;7.07;;;8.40;79.10;;;;;;5021363;28;20362;-66
2021/01/29 09:43:23;;;;;;;10.55;6.88;;;8.50;79.10;;;;;;5028839;28;20026;-68
2021/01/29 09:45:54;;;;;;;14.77;8.23;;;8.50;79.00;;;;;;5030562;28;20047;-64
2021/01/29 09:48:24;;;;;;;12.98;8.15;;;8.60;79.20;;;;;;5018658;28;20052;-69
2021/01/29 09:51:05;;;;;;;10.13;7.70;;;8.60;79.30;;;;;;5028810;28;20030;-64
2021/01/29 09:53:36;;;;;;;19.27;11.63;;;8.50;79.70;;;;;;5011189;28;20033;-67
2021/01/29 09:56:15;;;;;;;11.23;8.25;;;8.60;79.60;;;;;;5030052;28;20028;-64
2021/01/29 09:59:02;;;;;;;11.60;7.93;;;8.50;79.70;;;;;;5027429;28;20049;-63
2021/01/29 10:01:38;;;;;;;9.02;7.30;;;8.60;80.00;;;;;;5024198;28;20025;-69
2021/01/29 10:04:19;;;;;;;12.13;8.75;;;8.50;79.90;;;;;;5029956;28;20045;-71
2021/01/29 10:07:01;;;;;;;7.70;6.10;;;8.50;80.10;;;;;;5025563;28;20032;-67
2021/01/29 10:09:32;;;;;;;10.82;7.10;;;8.50;80.10;;;;;;5029791;28;20356;-62
2021/01/29 10:12:18;;;;;;;14.23;10.30;;;8.40;80.80;;;;;;5016723;28;20029;-66
2021/01/29 10:15:06;;;;;;;12.80;7.35;;;8.40;81.00;;;;;;5009320;28;20025;-68
2021/01/29 10:17:41;;;;;;;11.50;7.75;;;8.30;81.20;;;;;;5032720;28;20037;-66
2021/01/29 10:20:09;;;;;;;6.63;5.90;;;8.30;81.40;;;;;;5025657;28;20556;-64
2021/01/29 10:23:14;;;;;;;7.22;5.55;;;8.20;81.30;;;;;;5028049;28;20450;-71
2021/01/29 10:26:05;;;;;;;7.65;5.60;;;8.20;81.70;;;;;;5027062;28;20535;-73
2021/01/29 10:29:08;;;;;;;7.85;5.63;;;8.20;81.60;;;;;;5028756;28;20531;-65
2021/01/29 10:31:59;;;;;;;13.30;7.55;;;8.30;81.50;;;;;;5027923;28;20025;-68
2021/01/29 10:34:53;;;;;;;8.60;6.70;;;8.40;81.00;;;;;;5028083;28;20120;-63
2021/01/29 10:37:33;;;;;;;9.82;7.72;;;8.30;80.70;;;;;;5029416;28;20051;-67
2021/01/29 10:40:29;;;;;;;11.65;9.43;;;8.20;82.20;;;;;;5004195;28;20037;-71
2021/01/29 10:42:58;;;;;;;11.82;8.40;;;8.00;82.30;;;;;;5005239;23;20050;-62
2021/01/29 10:45:45;;;;;;;12.32;8.70;;;7.90;83.20;;;;;;4990018;28;20041;-63
2021/01/29 10:48:35;;;;;;;11.35;9.25;;;7.90;83.40;;;;;;5005959;28;20049;-61
2021/01/29 10:51:26;;;;;;;15.05;11.07;;;7.80;83.80;;;;;;5009707;28;20129;-64
2021/01/29 10:54:00;;;;;;;20.20;12.55;;;7.80;84.50;;;;;;5008223;28;20482;-63
2021/01/29 10:56:53;;;;;;;16.38;13.00;;;7.70;85.10;;;;;;5006886;28;20426;-65
2021/01/29 10:59:22;;;;;;;17.55;13.23;;;7.80;85.00;;;;;;5005760;28;20482;-61
2021/01/29 11:01:58;;;;;;;32.25;21.23;;;7.80;84.80;;;;;;5003748;28;20038;-64
2021/01/29 11:04:46;;;;;;;26.25;20.25;;;7.80;84.20;;;;;;4991764;28;20336;-63
2021/01/29 11:07:20;;;;;;;26.27;19.77;;;7.80;84.70;;;;;;4984141;28;20487;-65
2021/01/29 11:09:54;;;;;;;27.25;19.60;;;7.80;84.90;;;;;;5004244;28;20034;-67
2021/01/29 11:12:30;;;;;;;23.50;16.75;;;7.80;84.80;;;;;;5008282;28;20021;-65
2021/01/29 11:15:10;;;;;;;25.00;15.75;;;7.90;84.20;;;;;;5008336;28;20066;-63
2021/01/29 11:17:43;;;;;;;21.45;15.60;;;7.90;83.80;;;;;;5007914;28;20034;-65
2021/01/29 11:20:33;;;;;;;21.23;16.43;;;7.90;84.00;;;;;;5005172;28;20747;-65
2021/01/29 11:23:23;;;;;;;22.98;15.88;;;8.10;83.30;;;;;;4994997;28;20038;-63
2021/01/29 11:26:15;;;;;;;25.27;17.30;;;8.20;82.80;;;;;;5008560;28;20045;-64
2021/01/29 11:29:06;;;;;;;25.50;17.98;;;8.20;82.90;;;;;;4998618;28;20080;-67
2021/01/29 11:31:45;;;;;;;25.05;16.08;;;8.30;82.70;;;;;;5001047;28;20128;-60
2021/01/29 11:34:25;;;;;;;27.10;18.52;;;8.30;82.00;;;;;;5002154;28;20049;-61
2021/01/29 11:37:16;;;;;;;24.08;16.98;;;8.30;82.30;;;;;;5010407;28;20025;-51
2021/01/29 11:39:54;;;;;;;24.15;17.80;;;8.30;82.20;;;;;;4988883;28;20504;-46
2021/01/29 11:42:26;;;;;;;35.20;23.13;;;8.30;82.30;;;;;;4981809;28;689031;-51
2021/01/29 11:45:18;;;;;;;23.47;16.37;;;8.40;82.00;;;;;;5007437;28;20398;-52
2021/01/29 11:47:59;;;;;;;26.83;19.58;;;8.40;81.30;;;;;;4976135;28;20287;-50
2021/01/29 11:50:48;;;;;;;22.63;17.50;;;8.30;81.60;;;;;;4998337;28;20583;-44
2021/01/29 11:56:36;;;;;;;25.63;16.85;;;8.30;81.90;;;;;;5009589;28;20445;-49
2021/01/29 11:59:22;;;;;;;23.38;16.30;;;8.30;81.80;;;;;;4991377;28;20478;-43
2021/01/29 12:02:12;;;;;;;24.33;17.17;;;8.30;81.90;;;;;;4988145;28;20088;-48
2021/01/29 12:04:51;;;;;;;21.85;15.68;;;8.10;81.80;;;;;;5009260;28;20482;-50
2021/01/29 12:07:43;;;;;;;22.48;16.23;;;8.10;82.10;;;;;;4990640;28;20049;-45
2021/01/29 12:10:14;;;;;;;23.67;15.13;;;8.00;81.40;;;;;;5001169;28;20049;-45
2021/01/29 12:12:50;;;;;;;22.33;15.30;;;7.90;81.90;;;;;;4990819;28;20029;-45
2021/01/29 12:15:18;;;;;;;22.13;15.43;;;7.80;82.00;;;;;;5000955;28;20026;-45
2021/01/29 12:17:57;;;;;;;24.65;15.75;;;7.70;82.70;;;;;;4999753;28;20280;-42
2021/01/29 12:20:26;;;;;;;23.00;16.17;;;7.60;83.50;;;;;;4987487;28;20022;-45
2021/01/29 12:23:01;;;;;;;23.63;16.70;;;7.70;83.20;;;;;;5000765;28;20034;-45
2021/01/29 12:25:36;;;;;;;21.88;15.05;;;7.80;83.20;;;;;;4989931;28;20075;-48
2021/01/29 12:28:39;;;;;;;21.25;15.23;;;7.80;83.20;;;;;;5003970;28;20036;-49
2021/01/29 12:31:24;;;;;;;23.40;15.38;;;8.00;82.40;;;;;;4993195;28;20034;-49
2021/01/29 12:33:52;;;;;;;22.23;15.70;;;8.10;81.70;;;;;;4995328;28;20135;-50
2021/01/29 12:36:20;;;;;;;26.08;16.55;;;8.00;81.50;;;;;;5008174;28;20033;-58
2021/01/29 12:39:04;;;;;;;21.05;14.80;;;8.10;82.00;;;;;;5008692;28;20124;-58
2021/01/29 12:41:48;;;;;;;26.33;16.15;;;8.30;80.90;;;;;;5006703;28;20294;-60
2021/01/29 12:44:35;;;;;;;26.90;15.63;;;8.30;80.90;;;;;;5006152;28;20053;-48
2021/01/29 12:47:26;;;;;;;23.40;13.73;;;8.50;80.20;;;;;;5004677;28;20022;-49
2021/01/29 12:50:30;;;;;;;23.45;15.05;;;8.50;79.60;;;;;;4977247;28;20046;-53
2021/01/29 12:53:22;;;;;;;19.83;14.05;;;8.60;79.70;;;;;;5008628;28;20033;-44
2021/01/29 12:56:09;;;;;;;21.38;14.02;;;8.90;79.40;;;;;;4993396;28;20029;-46
2021/01/29 12:58:39;;;;;;;18.77;14.77;;;9.00;78.60;;;;;;5006774;28;20568;-45
2021/01/29 13:01:07;;;;;;;23.10;13.63;;;9.10;78.70;;;;;;5009965;28;20160;-43
2021/01/29 13:03:47;;;;;;;22.00;14.27;;;9.20;78.10;;;;;;5008183;28;20475;-44
2021/01/29 13:06:42;;;;;;;20.67;14.20;;;9.30;77.70;;;;;;4988570;28;20034;-52
2021/01/29 13:09:42;;;;;;;21.60;13.60;;;9.40;77.30;;;;;;4997339;28;20054;-44
2021/01/29 13:12:17;;;;;;;22.15;13.95;;;9.40;76.50;;;;;;5009014;28;20029;-45
2021/01/29 13:15:18;;;;;;;25.00;16.23;;;9.50;76.50;;;;;;4988281;28;20029;-42
2021/01/29 13:17:46;;;;;;;24.15;14.20;;;9.40;76.40;;;;;;5007993;28;20439;-40
2021/01/29 13:20:29;;;;;;;19.00;13.38;;;9.40;76.70;;;;;;5005638;28;20034;-54
2021/01/29 13:23:19;;;;;;;20.58;13.85;;;9.40;76.80;;;;;;5010889;28;20026;-41
2021/01/29 13:25:57;;;;;;;20.45;13.45;;;9.40;77.10;;;;;;4987432;28;20470;-41
2021/01/29 13:28:25;;;;;;;22.65;13.45;;;9.50;77.70;;;;;;5006768;28;20041;-40
2021/01/29 13:30:50;;;;;;;23.33;15.48;;;9.40;77.80;;;;;;5004300;28;20083;-44
2021/01/29 13:33:25;;;;;;;20.55;15.05;;;9.50;78.00;;;;;;4989400;28;20057;-48
2021/01/29 13:36:29;;;;;;;25.50;13.95;;;9.60;77.40;;;;;;5006986;28;20142;-49
2021/01/29 13:39:09;;;;;;;19.73;13.25;;;9.70;77.20;;;;;;4984808;28;20038;-43
2021/01/29 13:42:11;;;;;;;19.35;14.18;;;9.80;76.80;;;;;;5001807;28;20026;-48
2021/01/29 13:44:53;;;;;;;18.27;12.80;;;9.80;76.90;;;;;;4963243;28;20532;-45
2021/01/29 13:47:28;;;;;;;18.42;13.32;;;9.80;77.00;;;;;;4988954;28;20048;-42
2021/01/29 13:49:56;;;;;;;16.33;12.95;;;9.90;77.00;;;;;;5010764;28;20034;-48
2021/01/29 13:52:27;;;;;;;20.52;13.68;;;9.90;76.70;;;;;;4990381;28;20037;-55
2021/01/29 13:54:55;;;;;;;20.90;13.05;;;10.00;76.60;;;;;;4994697;28;20026;-57
2021/01/29 13:57:43;;;;;;;17.42;12.82;;;10.00;76.50;;;;;;5012027;28;20030;-58
2021/01/29 14:00:13;;;;;;;20.73;13.43;;;10.10;76.70;;;;;;5011043;28;20030;-54
2021/01/29 14:02:48;;;;;;;20.05;12.30;;;10.30;76.60;;;;;;4998180;28;20044;-55
2021/01/29 14:05:21;;;;;;;20.65;12.45;;;10.40;76.70;;;;;;4997888;28;20041;-56